sensor_id;sensor_type;location;lat;lon;timestamp;temperature;humidity
22765;DHT22;11549;50.852;3.816;2023-02-01T00:01:27;7.90;99.90
22765;DHT22;11549;50.852;3.816;2023-02-01T00:03:57;8.00;99.90
22765;DHT22;11549;50.852;3.816;2023-02-01T00:06:26;8.10;99.90
22765;DHT22;11549;50.852;3.816;2023-02-01T00:08:54;8.10;99.90
22765;DHT22;11549;50.852;3.816;2023-02-01T00:11:24;8.20;99.90
22765;DHT22;11549;50.852;3.816;2023-02-01T00:13:53;8.20;99.90
22765;DHT22;11549;50.852;3.816;2023-02-01T00:16:23;8.20;99.90
22765;DHT22;11549;50.852;3.816;2023-02-01T00:18:58;8.10;99.90
22765;DHT22;11549;50.852;3.816;2023-02-01T00:21:27;8.20;99.90
22765;DHT22;11549;50.852;3.816;2023-02-01T00:23:56;8.20;99.90
22765;DHT22;11549;50.852;3.816;2023-02-01T00:26:30;8.10;99.90
22765;DHT22;11549;50.852;3.816;2023-02-01T00:28:58;8.10;99.90
22765;DHT22;11549;50.852;3.816;2023-02-01T00:31:27;8.10;99.90
22765;DHT22;11549;50.852;3.816;2023-02-01T00:33:56;8.10;99.90
22765;DHT22;11549;50.852;3.816;2023-02-01T00:36:26;8.10;99.90
22765;DHT22;11549;50.852;3.816;2023-02-01T00:38:54;8.10;99.90
22765;DHT22;11549;50.852;3.816;2023-02-01T00:41:23;8.00;99.90
22765;DHT22;11549;50.852;3.816;2023-02-01T00:43:52;8.00;99.90
22765;DHT22;11549;50.852;3.816;2023-02-01T00:46:20;7.90;99.90
22765;DHT22;11549;50.852;3.816;2023-02-01T00:48:49;7.80;99.90
22765;DHT22;11549;50.852;3.816;2023-02-01T00:51:21;7.70;99.90
22765;DHT22;11549;50.852;3.816;2023-02-01T00:53:51;7.70;99.90
22765;DHT22;11549;50.852;3.816;2023-02-01T00:56:19;7.80;99.90
22765;DHT22;11549;50.852;3.816;2023-02-01T00:58:48;7.80;99.90
22765;DHT22;11549;50.852;3.816;2023-02-01T01:01:19;7.70;99.90
22765;DHT22;11549;50.852;3.816;2023-02-01T01:03:48;7.70;99.90
22765;DHT22;11549;50.852;3.816;2023-02-01T01:06:20;7.60;99.90
22765;DHT22;11549;50.852;3.816;2023-02-01T01:08:52;7.60;99.90
22765;DHT22;11549;50.852;3.816;2023-02-01T01:11:22;7.50;99.90
22765;DHT22;11549;50.852;3.816;2023-02-01T01:13:52;7.50;99.90
22765;DHT22;11549;50.852;3.816;2023-02-01T01:16:23;7.40;99.90
22765;DHT22;11549;50.852;3.816;2023-02-01T01:18:52;7.40;99.90
22765;DHT22;11549;50.852;3.816;2023-02-01T01:21:20;7.30;99.90
22765;DHT22;11549;50.852;3.816;2023-02-01T01:23:49;7.30;99.90
22765;DHT22;11549;50.852;3.816;2023-02-01T01:26:20;7.40;99.90
22765;DHT22;11549;50.852;3.816;2023-02-01T01:28:49;7.40;99.90
22765;DHT22;11549;50.852;3.816;2023-02-01T01:31:19;7.40;99.90
22765;DHT22;11549;50.852;3.816;2023-02-01T01:33:49;7.40;99.90
22765;DHT22;11549;50.852;3.816;2023-02-01T01:36:18;7.40;99.90
22765;DHT22;11549;50.852;3.816;2023-02-01T01:38:47;7.30;99.90
22765;DHT22;11549;50.852;3.816;2023-02-01T01:41:20;7.30;99.90
22765;DHT22;11549;50.852;3.816;2023-02-01T01:43:51;7.30;99.90
22765;DHT22;11549;50.852;3.816;2023-02-01T01:46:22;7.20;99.90
22765;DHT22;11549;50.852;3.816;2023-02-01T01:48:56;7.30;99.90
22765;DHT22;11549;50.852;3.816;2023-02-01T01:51:26;7.30;99.90
22765;DHT22;11549;50.852;3.816;2023-02-01T01:54:00;7.30;99.90
22765;DHT22;11549;50.852;3.816;2023-02-01T01:56:31;7.30;99.90
22765;DHT22;11549;50.852;3.816;2023-02-01T01:59:01;7.30;99.90
22765;DHT22;11549;50.852;3.816;2023-02-01T02:01:30;7.20;99.90
22765;DHT22;11549;50.852;3.816;2023-02-01T02:03:59;7.20;99.90
22765;DHT22;11549;50.852;3.816;2023-02-01T02:06:35;7.20;99.90
22765;DHT22;11549;50.852;3.816;2023-02-01T02:09:05;7.30;99.90
22765;DHT22;11549;50.852;3.816;2023-02-01T02:11:35;7.30;99.90
22765;DHT22;11549;50.852;3.816;2023-02-01T02:14:04;7.30;99.90
22765;DHT22;11549;50.852;3.816;2023-02-01T02:16:52;7.30;99.90
22765;DHT22;11549;50.852;3.816;2023-02-01T02:19:33;7.30;99.90
22765;DHT22;11549;50.852;3.816;2023-02-01T02:22:19;7.20;99.90
22765;DHT22;11549;50.852;3.816;2023-02-01T02:28:05;7.30;99.90
22765;DHT22;11549;50.852;3.816;2023-02-01T02:31:23;7.20;99.90
22765;DHT22;11549;50.852;3.816;2023-02-01T02:34:01;7.20;99.90
22765;DHT22;11549;50.852;3.816;2023-02-01T02:36:37;7.10;99.90
22765;DHT22;11549;50.852;3.816;2023-02-01T02:39:13;7.10;99.90
22765;DHT22;11549;50.852;3.816;2023-02-01T02:41:50;7.10;99.90
22765;DHT22;11549;50.852;3.816;2023-02-01T02:44:45;7.10;99.90
22765;DHT22;11549;50.852;3.816;2023-02-01T02:47:36;7.10;99.90
22765;DHT22;11549;50.852;3.816;2023-02-01T02:50:17;7.10;99.90
22765;DHT22;11549;50.852;3.816;2023-02-01T02:53:07;7.10;99.90
22765;DHT22;11549;50.852;3.816;2023-02-01T02:55:56;7.10;99.90
22765;DHT22;11549;50.852;3.816;2023-02-01T02:58:43;6.90;99.90
22765;DHT22;11549;50.852;3.816;2023-02-01T03:01:32;6.90;99.90
22765;DHT22;11549;50.852;3.816;2023-02-01T03:04:18;7.00;99.90
22765;DHT22;11549;50.852;3.816;2023-02-01T03:06:48;6.90;99.90
22765;DHT22;11549;50.852;3.816;2023-02-01T03:09:21;6.90;99.90
22765;DHT22;11549;50.852;3.816;2023-02-01T03:11:55;6.90;99.90
22765;DHT22;11549;50.852;3.816;2023-02-01T03:14:44;7.00;99.90
22765;DHT22;11549;50.852;3.816;2023-02-01T03:17:19;6.90;99.90
22765;DHT22;11549;50.852;3.816;2023-02-01T03:19:51;6.90;99.90
22765;DHT22;11549;50.852;3.816;2023-02-01T03:22:24;6.90;99.90
22765;DHT22;11549;50.852;3.816;2023-02-01T03:24:56;6.90;99.90
22765;DHT22;11549;50.852;3.816;2023-02-01T03:27:31;6.90;99.90
22765;DHT22;11549;50.852;3.816;2023-02-01T03:30:06;6.80;99.90
22765;DHT22;11549;50.852;3.816;2023-02-01T03:32:38;6.80;99.90
22765;DHT22;11549;50.852;3.816;2023-02-01T03:35:26;6.90;99.90
22765;DHT22;11549;50.852;3.816;2023-02-01T03:38:04;6.80;99.90
22765;DHT22;11549;50.852;3.816;2023-02-01T03:40:36;6.80;99.90
22765;DHT22;11549;50.852;3.816;2023-02-01T03:43:07;6.80;99.90
22765;DHT22;11549;50.852;3.816;2023-02-01T03:45:43;6.70;99.90
22765;DHT22;11549;50.852;3.816;2023-02-01T03:48:13;6.70;99.90
22765;DHT22;11549;50.852;3.816;2023-02-01T03:50:47;6.60;99.90
22765;DHT22;11549;50.852;3.816;2023-02-01T03:53:21;6.70;99.90
22765;DHT22;11549;50.852;3.816;2023-02-01T03:55:51;6.70;99.90
22765;DHT22;11549;50.852;3.816;2023-02-01T03:58:22;6.60;99.90
22765;DHT22;11549;50.852;3.816;2023-02-01T04:00:52;6.60;99.90
22765;DHT22;11549;50.852;3.816;2023-02-01T04:03:22;6.50;99.90
22765;DHT22;11549;50.852;3.816;2023-02-01T04:05:52;6.40;99.90
22765;DHT22;11549;50.852;3.816;2023-02-01T04:08:23;6.50;99.90
22765;DHT22;11549;50.852;3.816;2023-02-01T04:10:52;6.60;99.90
22765;DHT22;11549;50.852;3.816;2023-02-01T04:13:20;6.50;99.90
22765;DHT22;11549;50.852;3.816;2023-02-01T04:15:48;6.60;99.90
22765;DHT22;11549;50.852;3.816;2023-02-01T04:18:17;6.40;99.90
22765;DHT22;11549;50.852;3.816;2023-02-01T04:20:46;6.40;99.90
22765;DHT22;11549;50.852;3.816;2023-02-01T04:23:14;6.30;99.90
22765;DHT22;11549;50.852;3.816;2023-02-01T04:25:44;6.30;99.90
22765;DHT22;11549;50.852;3.816;2023-02-01T04:28:12;6.30;99.90
22765;DHT22;11549;50.852;3.816;2023-02-01T04:30:41;6.20;99.90
22765;DHT22;11549;50.852;3.816;2023-02-01T04:33:09;6.10;99.90
22765;DHT22;11549;50.852;3.816;2023-02-01T04:35:40;6.10;99.90
22765;DHT22;11549;50.852;3.816;2023-02-01T04:38:09;6.10;99.90
22765;DHT22;11549;50.852;3.816;2023-02-01T04:40:37;6.20;99.90
22765;DHT22;11549;50.852;3.816;2023-02-01T04:43:07;6.30;99.90
22765;DHT22;11549;50.852;3.816;2023-02-01T04:45:36;6.30;99.90
22765;DHT22;11549;50.852;3.816;2023-02-01T04:48:05;6.30;99.90
22765;DHT22;11549;50.852;3.816;2023-02-01T04:50:33;6.20;99.90
22765;DHT22;11549;50.852;3.816;2023-02-01T04:53:01;6.30;99.90
22765;DHT22;11549;50.852;3.816;2023-02-01T04:55:30;6.20;99.90
22765;DHT22;11549;50.852;3.816;2023-02-01T04:57:58;6.10;99.90
22765;DHT22;11549;50.852;3.816;2023-02-01T05:00:28;6.00;99.90
22765;DHT22;11549;50.852;3.816;2023-02-01T05:02:56;6.10;99.90
22765;DHT22;11549;50.852;3.816;2023-02-01T05:05:26;6.00;99.90
22765;DHT22;11549;50.852;3.816;2023-02-01T05:07:55;6.00;99.90
22765;DHT22;11549;50.852;3.816;2023-02-01T05:10:23;6.10;99.90
22765;DHT22;11549;50.852;3.816;2023-02-01T05:12:51;6.00;99.90
22765;DHT22;11549;50.852;3.816;2023-02-01T05:15:39;6.10;99.90
22765;DHT22;11549;50.852;3.816;2023-02-01T05:18:07;6.10;99.90
22765;DHT22;11549;50.852;3.816;2023-02-01T05:20:36;6.00;99.90
22765;DHT22;11549;50.852;3.816;2023-02-01T05:23:04;6.00;99.90
22765;DHT22;11549;50.852;3.816;2023-02-01T05:25:33;6.00;99.90
22765;DHT22;11549;50.852;3.816;2023-02-01T05:28:01;6.00;99.90
22765;DHT22;11549;50.852;3.816;2023-02-01T05:30:29;5.90;99.90
22765;DHT22;11549;50.852;3.816;2023-02-01T05:33:00;6.00;99.90
22765;DHT22;11549;50.852;3.816;2023-02-01T05:35:29;5.90;99.90
22765;DHT22;11549;50.852;3.816;2023-02-01T05:37:57;6.00;99.90
22765;DHT22;11549;50.852;3.816;2023-02-01T05:40:25;5.80;99.90
22765;DHT22;11549;50.852;3.816;2023-02-01T05:42:54;5.80;99.90
22765;DHT22;11549;50.852;3.816;2023-02-01T05:45:22;5.80;99.90
22765;DHT22;11549;50.852;3.816;2023-02-01T05:47:51;5.90;99.90
22765;DHT22;11549;50.852;3.816;2023-02-01T05:50:20;5.90;99.90
22765;DHT22;11549;50.852;3.816;2023-02-01T05:52:49;5.90;99.90
22765;DHT22;11549;50.852;3.816;2023-02-01T05:55:17;5.90;99.90
22765;DHT22;11549;50.852;3.816;2023-02-01T05:57:46;5.90;99.90
22765;DHT22;11549;50.852;3.816;2023-02-01T06:00:14;5.90;99.90
22765;DHT22;11549;50.852;3.816;2023-02-01T06:02:43;5.80;99.90
22765;DHT22;11549;50.852;3.816;2023-02-01T06:05:11;5.80;99.90
22765;DHT22;11549;50.852;3.816;2023-02-01T06:07:41;5.70;99.90
22765;DHT22;11549;50.852;3.816;2023-02-01T06:10:10;5.80;99.90
22765;DHT22;11549;50.852;3.816;2023-02-01T06:12:38;5.70;99.90
22765;DHT22;11549;50.852;3.816;2023-02-01T06:15:08;5.70;99.90
22765;DHT22;11549;50.852;3.816;2023-02-01T06:17:36;5.60;99.90
22765;DHT22;11549;50.852;3.816;2023-02-01T06:20:06;5.60;99.90
22765;DHT22;11549;50.852;3.816;2023-02-01T06:22:37;5.70;99.90
22765;DHT22;11549;50.852;3.816;2023-02-01T06:25:09;5.70;99.90
22765;DHT22;11549;50.852;3.816;2023-02-01T06:27:38;5.60;99.90
22765;DHT22;11549;50.852;3.816;2023-02-01T06:30:07;5.70;99.90
22765;DHT22;11549;50.852;3.816;2023-02-01T06:32:35;5.60;99.90
22765;DHT22;11549;50.852;3.816;2023-02-01T06:35:05;5.70;99.90
22765;DHT22;11549;50.852;3.816;2023-02-01T06:37:36;5.60;99.90
22765;DHT22;11549;50.852;3.816;2023-02-01T06:40:07;5.70;99.90
22765;DHT22;11549;50.852;3.816;2023-02-01T06:42:36;5.70;99.90
22765;DHT22;11549;50.852;3.816;2023-02-01T06:45:05;5.60;99.90
22765;DHT22;11549;50.852;3.816;2023-02-01T06:47:34;5.50;99.90
22765;DHT22;11549;50.852;3.816;2023-02-01T06:50:02;5.50;99.90
22765;DHT22;11549;50.852;3.816;2023-02-01T06:52:31;5.50;99.90
22765;DHT22;11549;50.852;3.816;2023-02-01T06:54:59;5.60;99.90
22765;DHT22;11549;50.852;3.816;2023-02-01T06:57:29;5.60;99.90
22765;DHT22;11549;50.852;3.816;2023-02-01T06:59:59;5.60;99.90
22765;DHT22;11549;50.852;3.816;2023-02-01T07:02:28;5.50;99.90
22765;DHT22;11549;50.852;3.816;2023-02-01T07:04:57;5.50;99.90
22765;DHT22;11549;50.852;3.816;2023-02-01T07:07:25;5.50;99.90
22765;DHT22;11549;50.852;3.816;2023-02-01T07:09:53;5.50;99.90
22765;DHT22;11549;50.852;3.816;2023-02-01T07:12:22;5.50;99.90
22765;DHT22;11549;50.852;3.816;2023-02-01T07:14:52;5.50;99.90
22765;DHT22;11549;50.852;3.816;2023-02-01T07:17:21;5.60;99.90
22765;DHT22;11549;50.852;3.816;2023-02-01T07:19:49;5.50;99.90
22765;DHT22;11549;50.852;3.816;2023-02-01T07:22:17;5.60;99.90
22765;DHT22;11549;50.852;3.816;2023-02-01T07:24:46;5.50;99.90
22765;DHT22;11549;50.852;3.816;2023-02-01T07:27:14;5.40;99.90
22765;DHT22;11549;50.852;3.816;2023-02-01T07:29:42;5.50;99.90
22765;DHT22;11549;50.852;3.816;2023-02-01T07:32:12;5.50;99.90
22765;DHT22;11549;50.852;3.816;2023-02-01T07:34:40;5.50;99.90
22765;DHT22;11549;50.852;3.816;2023-02-01T07:37:09;5.60;99.90
22765;DHT22;11549;50.852;3.816;2023-02-01T07:39:37;5.60;99.90
22765;DHT22;11549;50.852;3.816;2023-02-01T07:42:05;5.60;99.90
22765;DHT22;11549;50.852;3.816;2023-02-01T07:44:34;5.70;99.90
22765;DHT22;11549;50.852;3.816;2023-02-01T07:47:03;5.70;99.90
22765;DHT22;11549;50.852;3.816;2023-02-01T07:49:32;5.70;99.90
22765;DHT22;11549;50.852;3.816;2023-02-01T07:52:00;5.70;99.90
22765;DHT22;11549;50.852;3.816;2023-02-01T07:54:29;5.90;99.90
22765;DHT22;11549;50.852;3.816;2023-02-01T07:56:57;6.10;99.90
22765;DHT22;11549;50.852;3.816;2023-02-01T07:59:26;6.30;99.90
22765;DHT22;11549;50.852;3.816;2023-02-01T08:01:54;6.30;99.90
22765;DHT22;11549;50.852;3.816;2023-02-01T08:04:21;6.60;99.90
22765;DHT22;11549;50.852;3.816;2023-02-01T08:06:51;6.80;99.90
22765;DHT22;11549;50.852;3.816;2023-02-01T08:09:19;7.10;99.90
22765;DHT22;11549;50.852;3.816;2023-02-01T08:11:47;7.20;99.90
22765;DHT22;11549;50.852;3.816;2023-02-01T08:14:16;7.40;99.90
22765;DHT22;11549;50.852;3.816;2023-02-01T08:16:44;7.50;99.90
22765;DHT22;11549;50.852;3.816;2023-02-01T08:19:13;7.60;99.90
22765;DHT22;11549;50.852;3.816;2023-02-01T08:21:41;7.50;99.90
22765;DHT22;11549;50.852;3.816;2023-02-01T08:24:11;7.30;99.90
22765;DHT22;11549;50.852;3.816;2023-02-01T08:26:39;7.30;99.90
22765;DHT22;11549;50.852;3.816;2023-02-01T08:29:09;7.20;99.90
22765;DHT22;11549;50.852;3.816;2023-02-01T08:31:38;7.00;99.90
22765;DHT22;11549;50.852;3.816;2023-02-01T08:34:09;6.90;99.90
22765;DHT22;11549;50.852;3.816;2023-02-01T08:36:39;7.00;99.90
22765;DHT22;11549;50.852;3.816;2023-02-01T08:39:10;7.00;99.90
22765;DHT22;11549;50.852;3.816;2023-02-01T08:41:40;7.00;99.90
22765;DHT22;11549;50.852;3.816;2023-02-01T08:44:29;7.10;99.90
22765;DHT22;11549;50.852;3.816;2023-02-01T08:46:57;7.20;99.90
22765;DHT22;11549;50.852;3.816;2023-02-01T08:49:26;7.40;99.90
22765;DHT22;11549;50.852;3.816;2023-02-01T08:51:54;7.50;99.90
22765;DHT22;11549;50.852;3.816;2023-02-01T08:54:31;7.40;99.90
22765;DHT22;11549;50.852;3.816;2023-02-01T08:56:59;7.40;99.90
22765;DHT22;11549;50.852;3.816;2023-02-01T08:59:27;7.40;99.90
22765;DHT22;11549;50.852;3.816;2023-02-01T09:01:56;7.40;99.90
22765;DHT22;11549;50.852;3.816;2023-02-01T09:04:24;7.30;99.90
22765;DHT22;11549;50.852;3.816;2023-02-01T09:06:53;7.40;99.90
22765;DHT22;11549;50.852;3.816;2023-02-01T09:09:23;7.40;99.90
22765;DHT22;11549;50.852;3.816;2023-02-01T09:11:52;7.40;99.90
22765;DHT22;11549;50.852;3.816;2023-02-01T09:14:20;7.30;99.90
22765;DHT22;11549;50.852;3.816;2023-02-01T09:16:49;7.50;99.90
22765;DHT22;11549;50.852;3.816;2023-02-01T09:19:17;7.80;99.90
22765;DHT22;11549;50.852;3.816;2023-02-01T09:21:52;8.20;99.90
22765;DHT22;11549;50.852;3.816;2023-02-01T09:24:21;8.50;99.90
22765;DHT22;11549;50.852;3.816;2023-02-01T09:26:51;8.80;99.90
22765;DHT22;11549;50.852;3.816;2023-02-01T09:29:20;8.90;99.90
22765;DHT22;11549;50.852;3.816;2023-02-01T09:31:48;9.00;99.90
22765;DHT22;11549;50.852;3.816;2023-02-01T09:34:29;9.10;99.90
22765;DHT22;11549;50.852;3.816;2023-02-01T09:36:58;9.40;99.90
22765;DHT22;11549;50.852;3.816;2023-02-01T09:39:26;9.60;99.90
22765;DHT22;11549;50.852;3.816;2023-02-01T09:42:14;9.90;99.90
22765;DHT22;11549;50.852;3.816;2023-02-01T09:44:52;10.10;99.90
22765;DHT22;11549;50.852;3.816;2023-02-01T09:47:25;10.00;99.90
22765;DHT22;11549;50.852;3.816;2023-02-01T09:49:56;9.90;99.90
22765;DHT22;11549;50.852;3.816;2023-02-01T09:52:34;10.00;99.90
22765;DHT22;11549;50.852;3.816;2023-02-01T09:55:06;10.40;99.90
22765;DHT22;11549;50.852;3.816;2023-02-01T09:57:45;10.60;99.90
22765;DHT22;11549;50.852;3.816;2023-02-01T10:00:19;10.80;99.90
22765;DHT22;11549;50.852;3.816;2023-02-01T10:02:50;11.00;99.90
22765;DHT22;11549;50.852;3.816;2023-02-01T10:05:30;11.20;99.90
22765;DHT22;11549;50.852;3.816;2023-02-01T10:08:04;11.40;99.90
22765;DHT22;11549;50.852;3.816;2023-02-01T10:10:38;11.40;99.90
22765;DHT22;11549;50.852;3.816;2023-02-01T10:13:17;11.30;99.90
22765;DHT22;11549;50.852;3.816;2023-02-01T10:16:00;11.30;99.90
22765;DHT22;11549;50.852;3.816;2023-02-01T10:21:37;11.00;99.90
22765;DHT22;11549;50.852;3.816;2023-02-01T10:24:34;10.90;99.90
22765;DHT22;11549;50.852;3.816;2023-02-01T10:27:13;11.10;99.90
22765;DHT22;11549;50.852;3.816;2023-02-01T10:29:44;10.80;99.90
22765;DHT22;11549;50.852;3.816;2023-02-01T10:32:15;10.70;99.90
22765;DHT22;11549;50.852;3.816;2023-02-01T10:34:47;10.70;99.90
22765;DHT22;11549;50.852;3.816;2023-02-01T10:37:28;10.70;99.90
22765;DHT22;11549;50.852;3.816;2023-02-01T10:40:00;10.70;99.90
22765;DHT22;11549;50.852;3.816;2023-02-01T10:42:31;10.80;99.90
22765;DHT22;11549;50.852;3.816;2023-02-01T10:45:02;10.70;99.90
22765;DHT22;11549;50.852;3.816;2023-02-01T10:47:32;10.70;99.90
22765;DHT22;11549;50.852;3.816;2023-02-01T10:50:11;10.80;99.90
22765;DHT22;11549;50.852;3.816;2023-02-01T10:52:46;11.00;99.90
22765;DHT22;11549;50.852;3.816;2023-02-01T10:55:35;11.20;99.90
22765;DHT22;11549;50.852;3.816;2023-02-01T10:58:14;11.60;99.90
22765;DHT22;11549;50.852;3.816;2023-02-01T11:00:47;11.80;99.90
22765;DHT22;11549;50.852;3.816;2023-02-01T11:03:34;11.90;99.90
22765;DHT22;11549;50.852;3.816;2023-02-01T11:06:11;12.00;99.90
22765;DHT22;11549;50.852;3.816;2023-02-01T11:08:47;12.30;99.90
22765;DHT22;11549;50.852;3.816;2023-02-01T11:11:16;12.70;99.90
22765;DHT22;11549;50.852;3.816;2023-02-01T11:13:52;12.90;99.90
22765;DHT22;11549;50.852;3.816;2023-02-01T11:16:29;12.80;99.90
22765;DHT22;11549;50.852;3.816;2023-02-01T11:18:58;12.80;99.90
22765;DHT22;11549;50.852;3.816;2023-02-01T11:21:27;13.00;99.90
22765;DHT22;11549;50.852;3.816;2023-02-01T11:24:00;12.90;99.90
22765;DHT22;11549;50.852;3.816;2023-02-01T11:26:29;12.90;99.90
22765;DHT22;11549;50.852;3.816;2023-02-01T11:29:03;12.60;99.90
22765;DHT22;11549;50.852;3.816;2023-02-01T11:31:34;12.50;99.90
22765;DHT22;11549;50.852;3.816;2023-02-01T11:34:07;12.60;99.90
22765;DHT22;11549;50.852;3.816;2023-02-01T11:36:37;12.70;99.90
22765;DHT22;11549;50.852;3.816;2023-02-01T11:39:21;12.80;99.90
22765;DHT22;11549;50.852;3.816;2023-02-01T11:42:01;13.00;99.90
22765;DHT22;11549;50.852;3.816;2023-02-01T11:44:34;13.10;99.90
22765;DHT22;11549;50.852;3.816;2023-02-01T11:47:22;13.00;99.90
22765;DHT22;11549;50.852;3.816;2023-02-01T11:49:52;12.80;99.90
22765;DHT22;11549;50.852;3.816;2023-02-01T11:52:40;12.70;99.90
22765;DHT22;11549;50.852;3.816;2023-02-01T11:55:24;12.60;99.90
22765;DHT22;11549;50.852;3.816;2023-02-01T12:01:07;12.50;99.90
22765;DHT22;11549;50.852;3.816;2023-02-01T12:06:54;12.70;99.90
22765;DHT22;11549;50.852;3.816;2023-02-01T12:09:50;12.80;99.90
22765;DHT22;11549;50.852;3.816;2023-02-01T12:12:26;12.80;99.90
22765;DHT22;11549;50.852;3.816;2023-02-01T12:15:12;12.50;99.90
22765;DHT22;11549;50.852;3.816;2023-02-01T12:18:05;12.30;99.90
22765;DHT22;11549;50.852;3.816;2023-02-01T12:20:58;12.00;99.90
22765;DHT22;11549;50.852;3.816;2023-02-01T12:23:38;12.20;99.90
22765;DHT22;11549;50.852;3.816;2023-02-01T12:26:31;12.20;99.90
22765;DHT22;11549;50.852;3.816;2023-02-01T12:29:17;12.20;99.90
22765;DHT22;11549;50.852;3.816;2023-02-01T12:32:02;12.40;99.90
22765;DHT22;11549;50.852;3.816;2023-02-01T12:35:01;12.60;99.90
22765;DHT22;11549;50.852;3.816;2023-02-01T12:37:46;12.70;99.90
22765;DHT22;11549;50.852;3.816;2023-02-01T12:40:34;12.90;99.90
22765;DHT22;11549;50.852;3.816;2023-02-01T12:43:12;12.70;99.90
22765;DHT22;11549;50.852;3.816;2023-02-01T12:45:47;12.70;99.90
22765;DHT22;11549;50.852;3.816;2023-02-01T12:48:30;12.80;99.90
22765;DHT22;11549;50.852;3.816;2023-02-01T12:51:02;12.90;99.90
22765;DHT22;11549;50.852;3.816;2023-02-01T12:53:42;12.70;99.90
22765;DHT22;11549;50.852;3.816;2023-02-01T12:56:21;12.60;99.90
22765;DHT22;11549;50.852;3.816;2023-02-01T12:58:52;12.40;99.90
22765;DHT22;11549;50.852;3.816;2023-02-01T13:01:25;12.20;99.90
22765;DHT22;11549;50.852;3.816;2023-02-01T13:04:02;11.90;99.90
22765;DHT22;11549;50.852;3.816;2023-02-01T13:06:35;11.80;99.90
22765;DHT22;11549;50.852;3.816;2023-02-01T13:09:15;11.80;99.90
22765;DHT22;11549;50.852;3.816;2023-02-01T13:11:50;11.70;99.90
22765;DHT22;11549;50.852;3.816;2023-02-01T13:14:27;11.70;99.90
22765;DHT22;11549;50.852;3.816;2023-02-01T13:17:00;11.70;99.90
22765;DHT22;11549;50.852;3.816;2023-02-01T13:19:35;11.70;99.90
22765;DHT22;11549;50.852;3.816;2023-02-01T13:22:07;11.60;99.90
22765;DHT22;11549;50.852;3.816;2023-02-01T13:24:39;11.70;99.90
22765;DHT22;11549;50.852;3.816;2023-02-01T13:27:11;11.90;99.90
22765;DHT22;11549;50.852;3.816;2023-02-01T13:29:46;11.90;99.90
22765;DHT22;11549;50.852;3.816;2023-02-01T13:38:52;11.70;99.90
22765;DHT22;11549;50.852;3.816;2023-02-01T13:41:28;11.70;99.90
22765;DHT22;11549;50.852;3.816;2023-02-01T13:44:04;11.70;99.90
22765;DHT22;11549;50.852;3.816;2023-02-01T13:46:39;11.50;99.90
22765;DHT22;11549;50.852;3.816;2023-02-01T13:49:18;11.40;99.90
22765;DHT22;11549;50.852;3.816;2023-02-01T13:51:50;11.40;99.90
22765;DHT22;11549;50.852;3.816;2023-02-01T13:54:28;11.30;99.90
22765;DHT22;11549;50.852;3.816;2023-02-01T13:56:58;11.30;99.90
22765;DHT22;11549;50.852;3.816;2023-02-01T13:59:49;11.40;99.90
22765;DHT22;11549;50.852;3.816;2023-02-01T14:02:47;11.50;99.90
22765;DHT22;11549;50.852;3.816;2023-02-01T14:05:57;11.30;99.90
22765;DHT22;11549;50.852;3.816;2023-02-01T14:08:40;11.40;99.90
22765;DHT22;11549;50.852;3.816;2023-02-01T14:11:34;11.30;99.90
22765;DHT22;11549;50.852;3.816;2023-02-01T14:23:17;11.40;99.90
22765;DHT22;11549;50.852;3.816;2023-02-01T14:25:48;11.30;99.90
22765;DHT22;11549;50.852;3.816;2023-02-01T14:28:29;11.30;99.90
22765;DHT22;11549;50.852;3.816;2023-02-01T14:30:58;11.30;99.90
22765;DHT22;11549;50.852;3.816;2023-02-01T14:33:27;11.30;99.90
22765;DHT22;11549;50.852;3.816;2023-02-01T14:36:03;11.30;99.90
22765;DHT22;11549;50.852;3.816;2023-02-01T14:38:36;11.20;99.90
22765;DHT22;11549;50.852;3.816;2023-02-01T14:41:30;11.10;99.90
22765;DHT22;11549;50.852;3.816;2023-02-01T14:44:31;11.10;99.90
22765;DHT22;11549;50.852;3.816;2023-02-01T14:47:28;11.10;99.90
22765;DHT22;11549;50.852;3.816;2023-02-01T14:52:49;10.80;99.90
22765;DHT22;11549;50.852;3.816;2023-02-01T14:55:25;10.60;99.90
22765;DHT22;11549;50.852;3.816;2023-02-01T14:57:57;10.70;99.90
22765;DHT22;11549;50.852;3.816;2023-02-01T15:00:29;10.70;99.90
22765;DHT22;11549;50.852;3.816;2023-02-01T15:03:17;10.70;99.90
22765;DHT22;11549;50.852;3.816;2023-02-01T15:05:55;10.60;99.90
22765;DHT22;11549;50.852;3.816;2023-02-01T15:08:24;10.60;99.90
22765;DHT22;11549;50.852;3.816;2023-02-01T15:10:57;10.40;99.90
22765;DHT22;11549;50.852;3.816;2023-02-01T15:13:28;10.30;99.90
22765;DHT22;11549;50.852;3.816;2023-02-01T15:16:01;10.20;99.90
22765;DHT22;11549;50.852;3.816;2023-02-01T15:18:30;10.30;99.90
22765;DHT22;11549;50.852;3.816;2023-02-01T15:21:00;10.20;99.90
22765;DHT22;11549;50.852;3.816;2023-02-01T15:23:36;10.30;99.90
22765;DHT22;11549;50.852;3.816;2023-02-01T15:26:06;10.20;99.90
22765;DHT22;11549;50.852;3.816;2023-02-01T15:28:35;10.20;99.90
22765;DHT22;11549;50.852;3.816;2023-02-01T15:31:04;10.20;99.90
22765;DHT22;11549;50.852;3.816;2023-02-01T15:33:33;10.20;99.90
22765;DHT22;11549;50.852;3.816;2023-02-01T15:36:09;10.20;99.90
22765;DHT22;11549;50.852;3.816;2023-02-01T15:38:40;10.10;99.90
22765;DHT22;11549;50.852;3.816;2023-02-01T15:41:13;10.10;99.90
22765;DHT22;11549;50.852;3.816;2023-02-01T15:43:45;10.10;99.90
22765;DHT22;11549;50.852;3.816;2023-02-01T15:46:22;10.00;99.90
22765;DHT22;11549;50.852;3.816;2023-02-01T15:48:52;10.10;99.90
22765;DHT22;11549;50.852;3.816;2023-02-01T15:51:23;10.10;99.90
22765;DHT22;11549;50.852;3.816;2023-02-01T15:53:55;10.10;99.90
22765;DHT22;11549;50.852;3.816;2023-02-01T15:56:27;10.00;99.90
22765;DHT22;11549;50.852;3.816;2023-02-01T15:58:59;10.00;99.90
22765;DHT22;11549;50.852;3.816;2023-02-01T16:01:29;10.10;99.90
22765;DHT22;11549;50.852;3.816;2023-02-01T16:04:14;10.00;99.90
22765;DHT22;11549;50.852;3.816;2023-02-01T16:06:49;9.90;99.90
22765;DHT22;11549;50.852;3.816;2023-02-01T16:09:18;9.80;99.90
22765;DHT22;11549;50.852;3.816;2023-02-01T16:11:52;9.80;99.90
22765;DHT22;11549;50.852;3.816;2023-02-01T16:14:22;9.80;99.90
22765;DHT22;11549;50.852;3.816;2023-02-01T16:16:51;9.80;99.90
22765;DHT22;11549;50.852;3.816;2023-02-01T16:19:19;9.70;99.90
22765;DHT22;11549;50.852;3.816;2023-02-01T16:21:48;9.70;99.90
22765;DHT22;11549;50.852;3.816;2023-02-01T16:24:16;9.70;99.90
22765;DHT22;11549;50.852;3.816;2023-02-01T16:26:44;9.60;99.90
22765;DHT22;11549;50.852;3.816;2023-02-01T16:29:14;9.60;99.90
22765;DHT22;11549;50.852;3.816;2023-02-01T16:31:43;9.70;99.90
22765;DHT22;11549;50.852;3.816;2023-02-01T16:34:14;9.70;99.90
22765;DHT22;11549;50.852;3.816;2023-02-01T16:36:44;9.80;99.90
22765;DHT22;11549;50.852;3.816;2023-02-01T16:39:19;9.70;99.90
22765;DHT22;11549;50.852;3.816;2023-02-01T16:41:48;9.70;99.90
22765;DHT22;11549;50.852;3.816;2023-02-01T16:44:18;9.70;99.90
22765;DHT22;11549;50.852;3.816;2023-02-01T16:46:47;9.70;99.90
22765;DHT22;11549;50.852;3.816;2023-02-01T16:49:19;9.70;99.90